Albany, New York
Traffic Map
Current Weather Conditions
Albany, New York
Overcast Light Rain
Overcast

Feels Like: 7°
Wind Chill: Ceiling: 600
Heat Index: Visibility: 8mi
Dew Point: Wind: 5mph
Humidity: 93% Direction: 40° (NE)
Pressure: 29.82in Gusts: 0mph
Raw Report DataKALB 240851Z 04004KT 8SM -RA BKN006 OVC017 08/07 A2982 RMK AO2 DZE25RAB50 SLP099 PCPN VRY LGT P0000 60002 T00780067 55008
Traffic Incident Summary
Active as of:
Severity:
Category:
InformationThere was an issue retrieving the traffic information for this location. Please try a different location or try again shortly.
Advertisements
Track Severe Weather on mobile